Terminal Aerodrome Forecast
Issued by NWS

Home | Current Version | Previous Version | Text Only | Print | Product List | Glossary On
Versions: 1 2 3 4 5 6 7 8 9 10 11 12 13 14 15 16 17 18 19 20 21 22 23 24 25 26 27 28
000
FTUS41 KBOX 282320
TAFBED
TAF
KBED 282320Z 2900/2924 33010KT P6SM FEW060
     FM291400 01007KT P6SM FEW250
     FM291800 05006KT P6SM FEW250
     FM292100 09007KT P6SM FEW040=

USA.gov is the U.S. government's official web portal to all federal, state and local government web resources and services.